Valentina — V2GV6 — position and weather

sailwx.info

Track history (hours):
 
Tides and Currents Weather Stations Pressure Air Temp Water Temp Dewpoint Dewpoint Depression Visibility Wind Speed Wind Dir Waves Ship Positions

Valentina

Last reported at 2017-Oct-17 10:59 UTC. Time now 2017-Oct-19 02:01 UTC.
Position N 60°14' E 021°43'.

Length 95 m; draft 3.9 m.

Type: Cargo ship. MMSI: 305330000.

Date/timePositionNaut miles runAvg speedWind from/ knotsBaromVisibWave heightAir tempDewpointWater temp
2017-Oct-17 10:59N 60°14' E 021°43'511.1
2017-Oct-17 10:30N 60°09' E 021°41'611.1
2017-Oct-17 10:01N 60°03' E 021°41'611.2
2017-Oct-17 09:31N 59°57' E 021°41'611.3
2017-Oct-17 09:00N 59°53' E 021°33'611.1
2017-Oct-17 08:30N 59°50' E 021°24'510.1
2017-Oct-17 08:00N 59°45' E 021°21'510.4
2017-Oct-17 07:31N 59°40' E 021°21'510.8
2017-Oct-17 07:01N 59°37' E 021°30'611.1
2017-Oct-17 06:31N 59°35' E 021°40'  
2017-Oct-14 20:23N 55°44' E 016°27'410.4
2017-Oct-14 20:00N 55°43' E 016°20'510.6
2017-Oct-14 19:30N 55°42' E 016°11'510.6
2017-Oct-14 19:00N 55°40' E 016°02'510.3
2017-Oct-14 18:30N 55°39' E 015°53'510.1
2017-Oct-14 18:00N 55°38' E 015°45'510.2
2017-Oct-14 17:30N 55°37' E 015°36'510.4
2017-Oct-14 17:00N 55°35' E 015°27'510.5
2017-Oct-14 16:30N 55°33' E 015°18'510.6
2017-Oct-14 16:00N 55°31' E 015°10'610.5
2017-Oct-14 15:29N 55°29' E 015°01'510.5
2017-Oct-14 14:59N 55°26' E 014°53'810.4
2017-Oct-14 14:11N 55°23' E 014°40'210.2
2017-Oct-14 14:00N 55°21' E 014°38'510.2
2017-Oct-14 13:28N 55°17' E 014°31'510.4
2017-Oct-14 12:58N 55°13' E 014°26'5 9.8
2017-Oct-14 12:29N 55°10' E 014°19'510.4
2017-Oct-14 11:57N 55°10' E 014°09'510.3
2017-Oct-14 11:27N 55°09' E 014°00'510.5
2017-Oct-14 10:56N 55°09' E 013°51'2410.4
2017-Oct-14 08:39N 55°12' E 013°10'210.5
2017-Oct-14 08:28N 55°13' E 013°06'510.6
2017-Oct-14 08:00N 55°14' E 012°58'510.6
2017-Oct-14 07:30N 55°15' E 012°49'510.8
2017-Oct-14 07:00N 55°17' E 012°40'4 8.3
2017-Oct-14 06:30N 55°21' E 012°38'510.4
2017-Oct-14 06:00N 55°26' E 012°39'510.4
2017-Oct-14 05:30N 55°31' E 012°41'510.1
2017-Oct-14 05:00N 55°36' E 012°42'5 9.8
2017-Oct-14 04:30N 55°41' E 012°41'5 9.5
2017-Oct-14 04:00N 55°46' E 012°42'5 9.9
2017-Oct-14 03:30N 55°51' E 012°41'510.5
2017-Oct-14 03:00N 55°56' E 012°37'510.2
2017-Oct-14 02:30N 56°01' E 012°38'4 8.7
2017-Oct-14 02:00N 56°05' E 012°35'510.4
2017-Oct-14 01:30N 56°08' E 012°28'5 9.6
2017-Oct-14 01:00N 56°11' E 012°21'55 9.8
2017-Oct-13 19:25N 57°01' E 011°41'5 9.8
2017-Oct-13 18:56N 57°05' E 011°38'4 9.7
2017-Oct-13 18:30N 57°09' E 011°35'5 9.8
2017-Oct-13 18:00N 57°14' E 011°32'5 9.9
2017-Oct-13 17:30N 57°19' E 011°29'5 9.7
2017-Oct-13 17:00N 57°23' E 011°26'5 9.7
2017-Oct-13 16:29N 57°28' E 011°22'5 9.9
2017-Oct-13 16:00N 57°31' E 011°16'510.2
2017-Oct-13 15:30N 57°35' E 011°09'510.3
2017-Oct-13 14:59N 57°38' E 011°02'510.1
2017-Oct-13 14:30N 57°42' E 010°55'510.0
2017-Oct-13 14:00N 57°45' E 010°49'510.4
2017-Oct-13 13:30N 57°48' E 010°40'612.1
2017-Oct-13 13:00N 57°48' E 010°29'710.7
2017-Oct-13 12:23N 57°48' E 010°16'9310.5
2017-Oct-13 03:31N 57°53' E 007°22'110.1
2017-Oct-13 03:27N 57°53' E 007°21'4 9.9
2017-Oct-13 03:00N 57°54' E 007°13'510.1
2017-Oct-13 02:30N 57°55' E 007°03'510.3
2017-Oct-13 02:00N 57°56' E 006°54'5 9.8
2017-Oct-13 01:30N 57°57' E 006°45'5 9.9
2017-Oct-13 01:00N 57°58' E 006°36'5 9.6
2017-Oct-13 00:30N 58°00' E 006°28'5 9.8
2017-Oct-13 00:00N 58°04' E 006°21'5 9.4
2017-Oct-12 23:30N 58°07' E 006°15'4 9.1
2017-Oct-12 23:00N 58°10' E 006°09'5 9.0
2017-Oct-12 22:30N 58°14' E 006°03'5 9.1
2017-Oct-12 22:00N 58°17' E 005°57'4 9.0
2017-Oct-12 21:30N 58°20' E 005°51'5 9.2
2017-Oct-12 21:00N 58°23' E 005°45'5 9.8
2017-Oct-12 20:30N 58°27' E 005°39'510.1
2017-Oct-12 20:00N 58°31' E 005°33'5 9.9
2017-Oct-12 19:30N 58°35' E 005°29'5 9.7
2017-Oct-12 19:00N 58°40' E 005°25'5 9.5
2017-Oct-12 18:30N 58°44' E 005°23'5 9.4
2017-Oct-12 18:00N 58°49' E 005°20'5 9.3
2017-Oct-12 17:30N 58°54' E 005°18'5 9.5
2017-Oct-12 17:00N 58°58' E 005°18'5 9.2
2017-Oct-12 16:30N 59°03' E 005°19'4 7.7
2017-Oct-12 16:00N 59°06' E 005°23'4 8.2
2017-Oct-12 15:30N 59°09' E 005°29'5 9.9
2017-Oct-12 15:00N 59°12' E 005°36'510.0
2017-Oct-12 14:30N 59°16' E 005°43'5 9.9
2017-Oct-12 14:00N 59°19' E 005°51'510.3
2017-Oct-12 13:30N 59°21' E 005°60'2 4.1
2017-Oct-12 12:58N 59°23' E 006°03'0 0.0
2017-Oct-12 12:28N 59°23' E 006°03'0 0.0
2017-Oct-12 11:55N 59°23' E 006°03'0 0.0
2017-Oct-12 11:28N 59°23' E 006°03'0 0.0
2017-Oct-12 10:58N 59°23' E 006°03'0 0.0
2017-Oct-12 10:28N 59°23' E 006°03'0 0.0
2017-Oct-12 09:58N 59°23' E 006°03'0 0.0
2017-Oct-12 09:28N 59°23' E 006°03'0 0.0
2017-Oct-12 08:58N 59°23' E 006°03'0 0.0
2017-Oct-12 08:28N 59°23' E 006°03'0 0.0
2017-Oct-12 07:58N 59°23' E 006°03'0 0.0
2017-Oct-12 07:28N 59°23' E 006°03'0 0.0
2017-Oct-12 06:58N 59°23' E 006°03'0 0.0
2017-Oct-12 06:28N 59°23' E 006°03'0 0.0
2017-Oct-12 05:58N 59°23' E 006°03'0 0.0
2017-Oct-12 05:28N 59°23' E 006°03'0 0.0
2017-Oct-12 04:58N 59°23' E 006°03'0 0.0
2017-Oct-12 04:28N 59°23' E 006°03'0 0.0
2017-Oct-12 03:58N 59°23' E 006°03'0 0.0
2017-Oct-12 03:28N 59°23' E 006°03'0 0.0
2017-Oct-12 02:58N 59°23' E 006°03'0 0.0
2017-Oct-12 02:28N 59°23' E 006°03'0 0.0
2017-Oct-12 01:58N 59°23' E 006°03'0 0.0
2017-Oct-12 01:28N 59°23' E 006°03'0 0.0
2017-Oct-12 00:58N 59°23' E 006°03'0 0.0
2017-Oct-12 00:30N 59°23' E 006°03'1 1.9
2017-Oct-12 00:00N 59°22' E 006°01'5 9.7
2017-Oct-11 23:30N 59°20' E 005°53'611.9
2017-Oct-11 22:59N 59°16' E 005°43'611.7
2017-Oct-11 22:30N 59°12' E 005°36'611.2
2017-Oct-11 22:00N 59°08' E 005°29'5 9.3
2017-Oct-11 21:30N 59°09' E 005°20'611.0
2017-Oct-11 21:00N 59°15' E 005°20'510.1
2017-Oct-11 20:30N 59°20' E 005°19'5 9.6
2017-Oct-11 20:00N 59°24' E 005°15'510.4
2017-Oct-11 19:30N 59°29' E 005°13'510.2
2017-Oct-11 19:00N 59°34' E 005°14'611.4
2017-Oct-11 18:29N 59°39' E 005°20'511.0
2017-Oct-11 18:00N 59°43' E 005°28'611.0
2017-Oct-11 17:30N 59°47' E 005°35'510.9
2017-Oct-11 17:00N 59°52' E 005°41'29 1.7
2017-Oct-10 23:58N 60°05' E 006°32'0 0.0
2017-Oct-10 23:28N 60°05' E 006°32'0 0.0
2017-Oct-10 22:58N 60°05' E 006°32'0 0.0
2017-Oct-10 22:28N 60°05' E 006°32'0 0.0
2017-Oct-10 21:58N 60°05' E 006°32'0 0.0
2017-Oct-10 21:28N 60°05' E 006°32'0 0.0
2017-Oct-10 20:58N 60°05' E 006°32'0 0.0
2017-Oct-10 20:28N 60°05' E 006°32'0 0.0
2017-Oct-10 19:58N 60°05' E 006°32'0 0.0
2017-Oct-10 19:28N 60°05' E 006°32'0 0.0
2017-Oct-10 18:58N 60°05' E 006°32'0 0.0
2017-Oct-10 18:28N 60°05' E 006°32'0 0.0
2017-Oct-10 17:58N 60°05' E 006°32'0 0.0
2017-Oct-10 17:28N 60°05' E 006°32'0 0.0
2017-Oct-10 16:58N 60°05' E 006°32'0 0.0
2017-Oct-10 16:28N 60°05' E 006°32'0 0.0
2017-Oct-10 15:58N 60°05' E 006°32'0 0.0
2017-Oct-10 15:28N 60°05' E 006°32'0 0.0
2017-Oct-10 14:58N 60°05' E 006°32'0 0.0
2017-Oct-10 13:58N 60°05' E 006°32'0 0.0
2017-Oct-10 13:28N 60°05' E 006°32'0 0.0
2017-Oct-10 12:58N 60°05' E 006°32'0 0.0
2017-Oct-10 12:28N 60°05' E 006°32'0 0.0
2017-Oct-10 11:58N 60°05' E 006°32'0 0.0
2017-Oct-10 11:28N 60°05' E 006°32'0 0.0
2017-Oct-10 10:58N 60°05' E 006°32'0 0.0
2017-Oct-10 10:28N 60°05' E 006°32'0 0.0
2017-Oct-10 09:58N 60°05' E 006°32'0 0.0
2017-Oct-10 09:28N 60°05' E 006°32'0 0.0
2017-Oct-10 08:58N 60°05' E 006°32'0 0.0
2017-Oct-10 08:28N 60°05' E 006°32'0 0.0
2017-Oct-10 07:58N 60°05' E 006°32'0 0.0
2017-Oct-10 07:28N 60°05' E 006°32'0 0.0
2017-Oct-10 06:58N 60°05' E 006°32'0 0.0
2017-Oct-10 06:28N 60°05' E 006°32'0 0.0
2017-Oct-10 05:58N 60°05' E 006°32'0 0.0
2017-Oct-10 05:28N 60°05' E 006°32'0 0.0
2017-Oct-10 04:58N 60°05' E 006°32'0 0.0
2017-Oct-10 04:28N 60°05' E 006°32'0 0.0
2017-Oct-10 03:58N 60°05' E 006°32'0 0.0
2017-Oct-10 03:28N 60°05' E 006°32'0 0.0
2017-Oct-10 02:58N 60°05' E 006°32'0 0.0
2017-Oct-10 02:28N 60°05' E 006°32'0 0.0
2017-Oct-10 01:58N 60°05' E 006°32'0 0.0
2017-Oct-10 01:28N 60°05' E 006°32'0 0.0
2017-Oct-10 00:58N 60°05' E 006°32'0 0.0
2017-Oct-10 00:28N 60°05' E 006°32'0 0.0
2017-Oct-09 23:58N 60°05' E 006°32'0 0.0
2017-Oct-09 23:28N 60°05' E 006°32'0 0.0
2017-Oct-09 22:58N 60°05' E 006°32'0 0.0
2017-Oct-09 22:28N 60°05' E 006°32'0 0.0
2017-Oct-09 21:58N 60°05' E 006°32'0 0.0
2017-Oct-09 21:28N 60°05' E 006°32'0 0.0
2017-Oct-09 20:58N 60°05' E 006°32'0 0.0
2017-Oct-09 20:28N 60°05' E 006°32'0 0.0
2017-Oct-09 19:58N 60°05' E 006°32'0 0.0
2017-Oct-09 19:28N 60°05' E 006°32'0 0.0
2017-Oct-09 18:58N 60°05' E 006°32'0 0.0
2017-Oct-09 18:28N 60°05' E 006°32'0 0.0
2017-Oct-09 17:58N 60°05' E 006°32'0 0.0
2017-Oct-09 17:28N 60°05' E 006°32'0 0.0
2017-Oct-09 16:58N 60°05' E 006°32'0 0.0
2017-Oct-09 16:28N 60°05' E 006°32'0 0.0
2017-Oct-09 15:58N 60°05' E 006°32'0 0.0
2017-Oct-09 15:28N 60°05' E 006°32'0 0.2
2017-Oct-09 14:58N 60°05' E 006°32'0 0.0
2017-Oct-09 14:25N 60°05' E 006°32'0 0.0
2017-Oct-09 13:58N 60°05' E 006°32'0 0.0
2017-Oct-09 13:28N 60°05' E 006°32'0 0.0
2017-Oct-09 12:58N 60°05' E 006°32'0 0.0
2017-Oct-09 12:28N 60°05' E 006°32'0 0.0
2017-Oct-09 11:58N 60°05' E 006°32'0 0.0
2017-Oct-09 11:28N 60°05' E 006°32'0 0.0
2017-Oct-09 10:58N 60°05' E 006°32'0 0.0
2017-Oct-09 10:28N 60°05' E 006°32'0 0.0
2017-Oct-09 09:58N 60°05' E 006°32'0 0.0
2017-Oct-09 09:28N 60°05' E 006°32'0 0.0
2017-Oct-09 08:58N 60°05' E 006°32'0 0.0
2017-Oct-09 08:28N 60°05' E 006°32'0 0.0
2017-Oct-09 07:58N 60°05' E 006°32'0 0.0
2017-Oct-09 07:28N 60°05' E 006°32'0 0.0
2017-Oct-09 06:58N 60°05' E 006°32'0 0.0
2017-Oct-09 06:28N 60°05' E 006°32'0 0.0
2017-Oct-09 05:58N 60°05' E 006°32'0 0.0
2017-Oct-09 05:28N 60°05' E 006°32'0 0.0
2017-Oct-09 04:58N 60°05' E 006°32'0 0.0
2017-Oct-09 04:28N 60°05' E 006°32'0 0.0
2017-Oct-09 03:58N 60°05' E 006°32'0 0.0
2017-Oct-09 03:28N 60°05' E 006°32'0 0.0
2017-Oct-09 02:58N 60°05' E 006°32'0 0.0
2017-Oct-09 02:28N 60°05' E 006°32'0 0.0
2017-Oct-09 01:58N 60°05' E 006°32'0 0.0
2017-Oct-09 01:28N 60°05' E 006°32'0 0.0
2017-Oct-09 00:58N 60°05' E 006°32'0 0.0
2017-Oct-09 00:28N 60°05' E 006°32'0 0.0
2017-Oct-08 23:58N 60°05' E 006°32'0 0.0
2017-Oct-08 23:28N 60°05' E 006°32'0 0.0
2017-Oct-08 22:58N 60°05' E 006°32'0 0.0
2017-Oct-08 22:28N 60°05' E 006°32'0 0.0
2017-Oct-08 21:58N 60°05' E 006°32'0 0.0
2017-Oct-08 21:28N 60°05' E 006°32'0 0.0
2017-Oct-08 20:58N 60°05' E 006°32'0 0.0
2017-Oct-08 20:28N 60°05' E 006°32'0 0.0
2017-Oct-08 19:58N 60°05' E 006°32'0 0.0
2017-Oct-08 19:28N 60°05' E 006°32'0 0.0
2017-Oct-08 18:58N 60°05' E 006°32'0 0.0
2017-Oct-08 18:28N 60°05' E 006°32'0 0.0
2017-Oct-08 17:58N 60°05' E 006°32'0 0.0
2017-Oct-08 17:28N 60°05' E 006°32'0 0.0
2017-Oct-08 16:58N 60°05' E 006°32'0 0.0
2017-Oct-08 16:28N 60°05' E 006°32'0 0.0
2017-Oct-08 15:58N 60°05' E 006°32'0 0.0
2017-Oct-08 15:28N 60°05' E 006°32'0 0.0
2017-Oct-08 14:58N 60°05' E 006°32'0 0.0
2017-Oct-08 14:28N 60°05' E 006°32'0 0.0
2017-Oct-08 13:58N 60°05' E 006°32'0 0.0
2017-Oct-08 13:28N 60°05' E 006°32'0 0.0
2017-Oct-08 12:58N 60°05' E 006°32'0 0.0
2017-Oct-08 12:28N 60°05' E 006°32'0 0.0
2017-Oct-08 11:58N 60°05' E 006°32'0 0.0
2017-Oct-08 11:28N 60°05' E 006°32'0 0.0
2017-Oct-08 10:58N 60°05' E 006°32'0 0.0
2017-Oct-08 10:28N 60°05' E 006°32'0 0.0
2017-Oct-08 09:58N 60°05' E 006°32'0 0.0
2017-Oct-08 09:28N 60°05' E 006°32'0 0.0
2017-Oct-08 08:58N 60°05' E 006°32'0 0.0
2017-Oct-08 08:28N 60°05' E 006°32'0 0.0
2017-Oct-08 07:58N 60°05' E 006°32'0 0.0
2017-Oct-08 07:28N 60°05' E 006°32'0 0.0
2017-Oct-08 06:58N 60°05' E 006°32'0 0.0
2017-Oct-08 06:28N 60°05' E 006°32'0 0.0
2017-Oct-08 05:58N 60°05' E 006°32'0 0.0
2017-Oct-08 05:28N 60°05' E 006°32'0 0.0
2017-Oct-08 04:58N 60°05' E 006°32'0 0.0
2017-Oct-08 04:28N 60°05' E 006°32'0 0.0
2017-Oct-08 03:58N 60°05' E 006°32'0 0.0
2017-Oct-08 03:28N 60°05' E 006°32'0 0.0
2017-Oct-08 02:58N 60°05' E 006°32'0 0.0
2017-Oct-08 02:28N 60°05' E 006°32'0 0.0
2017-Oct-08 01:58N 60°05' E 006°32'0 0.0
2017-Oct-08 01:28N 60°05' E 006°32'0 0.0
2017-Oct-08 00:58N 60°05' E 006°32'0 0.0
2017-Oct-08 00:28N 60°05' E 006°32'0 0.0
2017-Oct-07 23:58N 60°05' E 006°32'0 0.0
2017-Oct-07 23:28N 60°05' E 006°32'0 0.0
2017-Oct-07 22:58N 60°05' E 006°32'0 0.0
2017-Oct-07 22:28N 60°05' E 006°32'0 0.0
2017-Oct-07 21:58N 60°05' E 006°32'0 0.0
2017-Oct-07 21:28N 60°05' E 006°32'0 0.0
2017-Oct-07 20:58N 60°05' E 006°32'0 0.0
2017-Oct-07 20:28N 60°05' E 006°32'0 0.0
2017-Oct-07 19:58N 60°05' E 006°32'0 0.0
2017-Oct-07 19:28N 60°05' E 006°32'0 0.0
2017-Oct-07 18:58N 60°05' E 006°32'0 0.0
2017-Oct-07 18:28N 60°05' E 006°32'0 0.0
2017-Oct-07 17:58N 60°05' E 006°32'0 0.0
2017-Oct-07 17:28N 60°05' E 006°32'0 0.0
2017-Oct-07 16:58N 60°05' E 006°32'0 0.0
2017-Oct-07 16:28N 60°05' E 006°32'0 0.0
2017-Oct-07 15:58N 60°05' E 006°32'0 0.0
2017-Oct-07 15:28N 60°05' E 006°32'0 0.0
2017-Oct-07 14:58N 60°05' E 006°32'0 0.0
2017-Oct-07 14:28N 60°05' E 006°32'0 0.0
2017-Oct-07 13:58N 60°05' E 006°32'0 0.0
2017-Oct-07 13:28N 60°05' E 006°32'0 0.0
2017-Oct-07 12:58N 60°05' E 006°32'0 0.0
2017-Oct-07 12:28N 60°05' E 006°32'0 0.0
2017-Oct-07 11:58N 60°05' E 006°32'0 0.0
2017-Oct-07 11:28N 60°05' E 006°32'  
Track history (hours):
 
Tides and Currents Weather Stations Pressure Air Temp Water Temp Dewpoint Dewpoint Depression Visibility Wind Speed Wind Dir Waves Ship Positions

Valentina

Last reported at 2017-Oct-17 10:59 UTC. Time now 2017-Oct-19 02:01 UTC.
Position N 60°14' E 021°43'.

Length 95 m; draft 3.9 m.

Type: Cargo ship. MMSI: 305330000.

Date/timePositionNaut miles runAvg speedWind from/ knotsBaromVisibWave heightAir tempDewpointWater temp
2017-Oct-17 10:59N 60°14' E 021°43'511.1
2017-Oct-17 10:30N 60°09' E 021°41'611.1
2017-Oct-17 10:01N 60°03' E 021°41'611.2
2017-Oct-17 09:31N 59°57' E 021°41'611.3
2017-Oct-17 09:00N 59°53' E 021°33'611.1
2017-Oct-17 08:30N 59°50' E 021°24'510.1
2017-Oct-17 08:00N 59°45' E 021°21'510.4
2017-Oct-17 07:31N 59°40' E 021°21'510.8
2017-Oct-17 07:01N 59°37' E 021°30'611.1
2017-Oct-17 06:31N 59°35' E 021°40'  
2017-Oct-14 20:23N 55°44' E 016°27'410.4
2017-Oct-14 20:00N 55°43' E 016°20'510.6
2017-Oct-14 19:30N 55°42' E 016°11'510.6
2017-Oct-14 19:00N 55°40' E 016°02'510.3
2017-Oct-14 18:30N 55°39' E 015°53'510.1
2017-Oct-14 18:00N 55°38' E 015°45'510.2
2017-Oct-14 17:30N 55°37' E 015°36'510.4
2017-Oct-14 17:00N 55°35' E 015°27'510.5
2017-Oct-14 16:30N 55°33' E 015°18'510.6
2017-Oct-14 16:00N 55°31' E 015°10'610.5
2017-Oct-14 15:29N 55°29' E 015°01'510.5
2017-Oct-14 14:59N 55°26' E 014°53'810.4
2017-Oct-14 14:11N 55°23' E 014°40'210.2
2017-Oct-14 14:00N 55°21' E 014°38'510.2
2017-Oct-14 13:28N 55°17' E 014°31'510.4
2017-Oct-14 12:58N 55°13' E 014°26'5 9.8
2017-Oct-14 12:29N 55°10' E 014°19'510.4
2017-Oct-14 11:57N 55°10' E 014°09'510.3
2017-Oct-14 11:27N 55°09' E 014°00'510.5
2017-Oct-14 10:56N 55°09' E 013°51'2410.4
2017-Oct-14 08:39N 55°12' E 013°10'210.5
2017-Oct-14 08:28N 55°13' E 013°06'510.6
2017-Oct-14 08:00N 55°14' E 012°58'510.6
2017-Oct-14 07:30N 55°15' E 012°49'510.8
2017-Oct-14 07:00N 55°17' E 012°40'4 8.3
2017-Oct-14 06:30N 55°21' E 012°38'510.4
2017-Oct-14 06:00N 55°26' E 012°39'510.4
2017-Oct-14 05:30N 55°31' E 012°41'510.1
2017-Oct-14 05:00N 55°36' E 012°42'5 9.8
2017-Oct-14 04:30N 55°41' E 012°41'5 9.5
2017-Oct-14 04:00N 55°46' E 012°42'5 9.9
2017-Oct-14 03:30N 55°51' E 012°41'510.5
2017-Oct-14 03:00N 55°56' E 012°37'510.2
2017-Oct-14 02:30N 56°01' E 012°38'4 8.7
2017-Oct-14 02:00N 56°05' E 012°35'510.4
2017-Oct-14 01:30N 56°08' E 012°28'5 9.6
2017-Oct-14 01:00N 56°11' E 012°21'55 9.8
2017-Oct-13 19:25N 57°01' E 011°41'5 9.8
2017-Oct-13 18:56N 57°05' E 011°38'4 9.7
2017-Oct-13 18:30N 57°09' E 011°35'5 9.8
2017-Oct-13 18:00N 57°14' E 011°32'5 9.9
2017-Oct-13 17:30N 57°19' E 011°29'5 9.7
2017-Oct-13 17:00N 57°23' E 011°26'5 9.7
2017-Oct-13 16:29N 57°28' E 011°22'5 9.9
2017-Oct-13 16:00N 57°31' E 011°16'510.2
2017-Oct-13 15:30N 57°35' E 011°09'510.3
2017-Oct-13 14:59N 57°38' E 011°02'510.1
2017-Oct-13 14:30N 57°42' E 010°55'510.0
2017-Oct-13 14:00N 57°45' E 010°49'510.4
2017-Oct-13 13:30N 57°48' E 010°40'612.1
2017-Oct-13 13:00N 57°48' E 010°29'710.7
2017-Oct-13 12:23N 57°48' E 010°16'9310.5
2017-Oct-13 03:31N 57°53' E 007°22'110.1
2017-Oct-13 03:27N 57°53' E 007°21'4 9.9
2017-Oct-13 03:00N 57°54' E 007°13'510.1
2017-Oct-13 02:30N 57°55' E 007°03'510.3
2017-Oct-13 02:00N 57°56' E 006°54'5 9.8
2017-Oct-13 01:30N 57°57' E 006°45'5 9.9
2017-Oct-13 01:00N 57°58' E 006°36'5 9.6
2017-Oct-13 00:30N 58°00' E 006°28'5 9.8
2017-Oct-13 00:00N 58°04' E 006°21'5 9.4
2017-Oct-12 23:30N 58°07' E 006°15'4 9.1
2017-Oct-12 23:00N 58°10' E 006°09'5 9.0
2017-Oct-12 22:30N 58°14' E 006°03'5 9.1
2017-Oct-12 22:00N 58°17' E 005°57'4 9.0
2017-Oct-12 21:30N 58°20' E 005°51'5 9.2
2017-Oct-12 21:00N 58°23' E 005°45'5 9.8
2017-Oct-12 20:30N 58°27' E 005°39'510.1
2017-Oct-12 20:00N 58°31' E 005°33'5 9.9
2017-Oct-12 19:30N 58°35' E 005°29'5 9.7
2017-Oct-12 19:00N 58°40' E 005°25'5 9.5
2017-Oct-12 18:30N 58°44' E 005°23'5 9.4
2017-Oct-12 18:00N 58°49' E 005°20'5 9.3
2017-Oct-12 17:30N 58°54' E 005°18'5 9.5
2017-Oct-12 17:00N 58°58' E 005°18'5 9.2
2017-Oct-12 16:30N 59°03' E 005°19'4 7.7
2017-Oct-12 16:00N 59°06' E 005°23'4 8.2
2017-Oct-12 15:30N 59°09' E 005°29'5 9.9
2017-Oct-12 15:00N 59°12' E 005°36'510.0
2017-Oct-12 14:30N 59°16' E 005°43'5 9.9
2017-Oct-12 14:00N 59°19' E 005°51'510.3
2017-Oct-12 13:30N 59°21' E 005°60'2 4.1
2017-Oct-12 12:58N 59°23' E 006°03'0 0.0
2017-Oct-12 12:28N 59°23' E 006°03'0 0.0
2017-Oct-12 11:55N 59°23' E 006°03'0 0.0
2017-Oct-12 11:28N 59°23' E 006°03'0 0.0
2017-Oct-12 10:58N 59°23' E 006°03'0 0.0
2017-Oct-12 10:28N 59°23' E 006°03'0 0.0
2017-Oct-12 09:58N 59°23' E 006°03'0 0.0
2017-Oct-12 09:28N 59°23' E 006°03'0 0.0
2017-Oct-12 08:58N 59°23' E 006°03'0 0.0
2017-Oct-12 08:28N 59°23' E 006°03'0 0.0
2017-Oct-12 07:58N 59°23' E 006°03'0 0.0
2017-Oct-12 07:28N 59°23' E 006°03'0 0.0
2017-Oct-12 06:58N 59°23' E 006°03'0 0.0
2017-Oct-12 06:28N 59°23' E 006°03'0 0.0
2017-Oct-12 05:58N 59°23' E 006°03'0 0.0
2017-Oct-12 05:28N 59°23' E 006°03'0 0.0
2017-Oct-12 04:58N 59°23' E 006°03'0 0.0
2017-Oct-12 04:28N 59°23' E 006°03'0 0.0
2017-Oct-12 03:58N 59°23' E 006°03'0 0.0
2017-Oct-12 03:28N 59°23' E 006°03'0 0.0
2017-Oct-12 02:58N 59°23' E 006°03'0 0.0
2017-Oct-12 02:28N 59°23' E 006°03'0 0.0
2017-Oct-12 01:58N 59°23' E 006°03'0 0.0
2017-Oct-12 01:28N 59°23' E 006°03'0 0.0
2017-Oct-12 00:58N 59°23' E 006°03'0 0.0
2017-Oct-12 00:30N 59°23' E 006°03'1 1.9
2017-Oct-12 00:00N 59°22' E 006°01'5 9.7
2017-Oct-11 23:30N 59°20' E 005°53'611.9
2017-Oct-11 22:59N 59°16' E 005°43'611.7
2017-Oct-11 22:30N 59°12' E 005°36'611.2
2017-Oct-11 22:00N 59°08' E 005°29'5 9.3
2017-Oct-11 21:30N 59°09' E 005°20'611.0
2017-Oct-11 21:00N 59°15' E 005°20'510.1
2017-Oct-11 20:30N 59°20' E 005°19'5 9.6
2017-Oct-11 20:00N 59°24' E 005°15'510.4
2017-Oct-11 19:30N 59°29' E 005°13'510.2
2017-Oct-11 19:00N 59°34' E 005°14'611.4
2017-Oct-11 18:29N 59°39' E 005°20'511.0
2017-Oct-11 18:00N 59°43' E 005°28'611.0
2017-Oct-11 17:30N 59°47' E 005°35'510.9
2017-Oct-11 17:00N 59°52' E 005°41'29 1.7
2017-Oct-10 23:58N 60°05' E 006°32'0 0.0
2017-Oct-10 23:28N 60°05' E 006°32'0 0.0
2017-Oct-10 22:58N 60°05' E 006°32'0 0.0
2017-Oct-10 22:28N 60°05' E 006°32'0 0.0
2017-Oct-10 21:58N 60°05' E 006°32'0 0.0
2017-Oct-10 21:28N 60°05' E 006°32'0 0.0
2017-Oct-10 20:58N 60°05' E 006°32'0 0.0
2017-Oct-10 20:28N 60°05' E 006°32'0 0.0
2017-Oct-10 19:58N 60°05' E 006°32'0 0.0
2017-Oct-10 19:28N 60°05' E 006°32'0 0.0
2017-Oct-10 18:58N 60°05' E 006°32'0 0.0
2017-Oct-10 18:28N 60°05' E 006°32'0 0.0
2017-Oct-10 17:58N 60°05' E 006°32'0 0.0
2017-Oct-10 17:28N 60°05' E 006°32'0 0.0
2017-Oct-10 16:58N 60°05' E 006°32'0 0.0
2017-Oct-10 16:28N 60°05' E 006°32'0 0.0
2017-Oct-10 15:58N 60°05' E 006°32'0 0.0
2017-Oct-10 15:28N 60°05' E 006°32'0 0.0
2017-Oct-10 14:58N 60°05' E 006°32'0 0.0
2017-Oct-10 13:58N 60°05' E 006°32'0 0.0
2017-Oct-10 13:28N 60°05' E 006°32'0 0.0
2017-Oct-10 12:58N 60°05' E 006°32'0 0.0
2017-Oct-10 12:28N 60°05' E 006°32'0 0.0
2017-Oct-10 11:58N 60°05' E 006°32'0 0.0
2017-Oct-10 11:28N 60°05' E 006°32'0 0.0
2017-Oct-10 10:58N 60°05' E 006°32'0 0.0
2017-Oct-10 10:28N 60°05' E 006°32'0 0.0
2017-Oct-10 09:58N 60°05' E 006°32'0 0.0
2017-Oct-10 09:28N 60°05' E 006°32'0 0.0
2017-Oct-10 08:58N 60°05' E 006°32'0 0.0
2017-Oct-10 08:28N 60°05' E 006°32'0 0.0
2017-Oct-10 07:58N 60°05' E 006°32'0 0.0
2017-Oct-10 07:28N 60°05' E 006°32'0 0.0
2017-Oct-10 06:58N 60°05' E 006°32'0 0.0
2017-Oct-10 06:28N 60°05' E 006°32'0 0.0
2017-Oct-10 05:58N 60°05' E 006°32'0 0.0
2017-Oct-10 05:28N 60°05' E 006°32'0 0.0
2017-Oct-10 04:58N 60°05' E 006°32'0 0.0
2017-Oct-10 04:28N 60°05' E 006°32'0 0.0
2017-Oct-10 03:58N 60°05' E 006°32'0 0.0
2017-Oct-10 03:28N 60°05' E 006°32'0 0.0
2017-Oct-10 02:58N 60°05' E 006°32'0 0.0
2017-Oct-10 02:28N 60°05' E 006°32'0 0.0
2017-Oct-10 01:58N 60°05' E 006°32'0 0.0
2017-Oct-10 01:28N 60°05' E 006°32'0 0.0
2017-Oct-10 00:58N 60°05' E 006°32'0 0.0
2017-Oct-10 00:28N 60°05' E 006°32'0 0.0
2017-Oct-09 23:58N 60°05' E 006°32'0 0.0
2017-Oct-09 23:28N 60°05' E 006°32'0 0.0
2017-Oct-09 22:58N 60°05' E 006°32'0 0.0
2017-Oct-09 22:28N 60°05' E 006°32'0 0.0
2017-Oct-09 21:58N 60°05' E 006°32'0 0.0
2017-Oct-09 21:28N 60°05' E 006°32'0 0.0
2017-Oct-09 20:58N 60°05' E 006°32'0 0.0
2017-Oct-09 20:28N 60°05' E 006°32'0 0.0
2017-Oct-09 19:58N 60°05' E 006°32'0 0.0
2017-Oct-09 19:28N 60°05' E 006°32'0 0.0
2017-Oct-09 18:58N 60°05' E 006°32'0 0.0
2017-Oct-09 18:28N 60°05' E 006°32'0 0.0
2017-Oct-09 17:58N 60°05' E 006°32'0 0.0
2017-Oct-09 17:28N 60°05' E 006°32'0 0.0
2017-Oct-09 16:58N 60°05' E 006°32'0 0.0
2017-Oct-09 16:28N 60°05' E 006°32'0 0.0
2017-Oct-09 15:58N 60°05' E 006°32'0 0.0
2017-Oct-09 15:28N 60°05' E 006°32'0 0.2
2017-Oct-09 14:58N 60°05' E 006°32'0 0.0
2017-Oct-09 14:25N 60°05' E 006°32'0 0.0
2017-Oct-09 13:58N 60°05' E 006°32'0 0.0
2017-Oct-09 13:28N 60°05' E 006°32'0 0.0
2017-Oct-09 12:58N 60°05' E 006°32'0 0.0
2017-Oct-09 12:28N 60°05' E 006°32'0 0.0
2017-Oct-09 11:58N 60°05' E 006°32'0 0.0
2017-Oct-09 11:28N 60°05' E 006°32'0 0.0
2017-Oct-09 10:58N 60°05' E 006°32'0 0.0
2017-Oct-09 10:28N 60°05' E 006°32'0 0.0
2017-Oct-09 09:58N 60°05' E 006°32'0 0.0
2017-Oct-09 09:28N 60°05' E 006°32'0 0.0
2017-Oct-09 08:58N 60°05' E 006°32'0 0.0
2017-Oct-09 08:28N 60°05' E 006°32'0 0.0
2017-Oct-09 07:58N 60°05' E 006°32'0 0.0
2017-Oct-09 07:28N 60°05' E 006°32'0 0.0
2017-Oct-09 06:58N 60°05' E 006°32'0 0.0
2017-Oct-09 06:28N 60°05' E 006°32'0 0.0
2017-Oct-09 05:58N 60°05' E 006°32'0 0.0
2017-Oct-09 05:28N 60°05' E 006°32'0 0.0
2017-Oct-09 04:58N 60°05' E 006°32'0 0.0
2017-Oct-09 04:28N 60°05' E 006°32'0 0.0
2017-Oct-09 03:58N 60°05' E 006°32'0 0.0
2017-Oct-09 03:28N 60°05' E 006°32'0 0.0
2017-Oct-09 02:58N 60°05' E 006°32'0 0.0
2017-Oct-09 02:28N 60°05' E 006°32'0 0.0
2017-Oct-09 01:58N 60°05' E 006°32'0 0.0
2017-Oct-09 01:28N 60°05' E 006°32'0 0.0
2017-Oct-09 00:58N 60°05' E 006°32'0 0.0
2017-Oct-09 00:28N 60°05' E 006°32'0 0.0
2017-Oct-08 23:58N 60°05' E 006°32'0 0.0
2017-Oct-08 23:28N 60°05' E 006°32'0 0.0
2017-Oct-08 22:58N 60°05' E 006°32'0 0.0
2017-Oct-08 22:28N 60°05' E 006°32'0 0.0
2017-Oct-08 21:58N 60°05' E 006°32'0 0.0
2017-Oct-08 21:28N 60°05' E 006°32'0 0.0
2017-Oct-08 20:58N 60°05' E 006°32'0 0.0
2017-Oct-08 20:28N 60°05' E 006°32'0 0.0
2017-Oct-08 19:58N 60°05' E 006°32'0 0.0
2017-Oct-08 19:28N 60°05' E 006°32'0 0.0
2017-Oct-08 18:58N 60°05' E 006°32'0 0.0
2017-Oct-08 18:28N 60°05' E 006°32'0 0.0
2017-Oct-08 17:58N 60°05' E 006°32'0 0.0
2017-Oct-08 17:28N 60°05' E 006°32'0 0.0
2017-Oct-08 16:58N 60°05' E 006°32'0 0.0
2017-Oct-08 16:28N 60°05' E 006°32'0 0.0
2017-Oct-08 15:58N 60°05' E 006°32'0 0.0
2017-Oct-08 15:28N 60°05' E 006°32'0 0.0
2017-Oct-08 14:58N 60°05' E 006°32'0 0.0
2017-Oct-08 14:28N 60°05' E 006°32'0 0.0
2017-Oct-08 13:58N 60°05' E 006°32'0 0.0
2017-Oct-08 13:28N 60°05' E 006°32'0 0.0
2017-Oct-08 12:58N 60°05' E 006°32'0 0.0
2017-Oct-08 12:28N 60°05' E 006°32'0 0.0
2017-Oct-08 11:58N 60°05' E 006°32'0 0.0
2017-Oct-08 11:28N 60°05' E 006°32'0 0.0
2017-Oct-08 10:58N 60°05' E 006°32'0 0.0
2017-Oct-08 10:28N 60°05' E 006°32'0 0.0
2017-Oct-08 09:58N 60°05' E 006°32'0 0.0
2017-Oct-08 09:28N 60°05' E 006°32'0 0.0
2017-Oct-08 08:58N 60°05' E 006°32'0 0.0
2017-Oct-08 08:28N 60°05' E 006°32'0 0.0
2017-Oct-08 07:58N 60°05' E 006°32'0 0.0
2017-Oct-08 07:28N 60°05' E 006°32'0 0.0
2017-Oct-08 06:58N 60°05' E 006°32'0 0.0
2017-Oct-08 06:28N 60°05' E 006°32'0 0.0
2017-Oct-08 05:58N 60°05' E 006°32'0 0.0
2017-Oct-08 05:28N 60°05' E 006°32'0 0.0
2017-Oct-08 04:58N 60°05' E 006°32'0 0.0
2017-Oct-08 04:28N 60°05' E 006°32'0 0.0
2017-Oct-08 03:58N 60°05' E 006°32'0 0.0
2017-Oct-08 03:28N 60°05' E 006°32'0 0.0
2017-Oct-08 02:58N 60°05' E 006°32'0 0.0
2017-Oct-08 02:28N 60°05' E 006°32'0 0.0
2017-Oct-08 01:58N 60°05' E 006°32'0 0.0
2017-Oct-08 01:28N 60°05' E 006°32'0 0.0
2017-Oct-08 00:58N 60°05' E 006°32'0 0.0
2017-Oct-08 00:28N 60°05' E 006°32'0 0.0
2017-Oct-07 23:58N 60°05' E 006°32'0 0.0
2017-Oct-07 23:28N 60°05' E 006°32'0 0.0
2017-Oct-07 22:58N 60°05' E 006°32'0 0.0
2017-Oct-07 22:28N 60°05' E 006°32'0 0.0
2017-Oct-07 21:58N 60°05' E 006°32'0 0.0
2017-Oct-07 21:28N 60°05' E 006°32'0 0.0
2017-Oct-07 20:58N 60°05' E 006°32'0 0.0
2017-Oct-07 20:28N 60°05' E 006°32'0 0.0
2017-Oct-07 19:58N 60°05' E 006°32'0 0.0
2017-Oct-07 19:28N 60°05' E 006°32'0 0.0
2017-Oct-07 18:58N 60°05' E 006°32'0 0.0
2017-Oct-07 18:28N 60°05' E 006°32'0 0.0
2017-Oct-07 17:58N 60°05' E 006°32'0 0.0
2017-Oct-07 17:28N 60°05' E 006°32'0 0.0
2017-Oct-07 16:58N 60°05' E 006°32'0 0.0
2017-Oct-07 16:28N 60°05' E 006°32'0 0.0
2017-Oct-07 15:58N 60°05' E 006°32'0 0.0
2017-Oct-07 15:28N 60°05' E 006°32'0 0.0
2017-Oct-07 14:58N 60°05' E 006°32'0 0.0
2017-Oct-07 14:28N 60°05' E 006°32'0 0.0
2017-Oct-07 13:58N 60°05' E 006°32'0 0.0
2017-Oct-07 13:28N 60°05' E 006°32'0 0.0
2017-Oct-07 12:58N 60°05' E 006°32'0 0.0
2017-Oct-07 12:28N 60°05' E 006°32'0 0.0
2017-Oct-07 11:58N 60°05' E 006°32'0 0.0
2017-Oct-07 11:28N 60°05' E 006°32'  

Dump ship's entire track history